Time;durP1;ratioP1;P1;durP2;ratioP2;P2;SDS_P1;SDS_P2;PMS_P1;PMS_P2;Temp;Humidity;BMP_temperature;BMP_pressure;BME280_temperature;BME280_humidity;BME280_pressure;Samples;Min_cycle;Max_cycle;Signal;HPM_P1;HPM_P2
2023/07/12 00:02:14;;;;;;;11.38;4.00;;;;;;;;;;5073073;28;20055;-73
2023/07/12 00:04:39;;;;;;;13.60;4.10;;;;;;;;;;5072670;28;20064;-74
2023/07/12 00:07:08;;;;;;;12.13;4.13;;;;;;;;;;5074148;28;20474;-75
2023/07/12 00:09:34;;;;;;;13.00;3.65;;;;;;;;;;5073796;28;20103;-73
2023/07/12 00:12:00;;;;;;;8.55;3.70;;;;;;;;;;5073192;28;20510;-75
2023/07/12 00:14:26;;;;;;;11.40;4.07;;;;;;;;;;5073396;28;20031;-73
2023/07/12 00:16:52;;;;;;;11.23;3.55;;;;;;;;;;5072751;28;20021;-74
2023/07/12 00:19:18;;;;;;;12.55;3.67;;;;;;;;;;5074004;28;20024;-75
2023/07/12 00:21:44;;;;;;;8.70;3.70;;;;;;;;;;5073218;28;20490;-73
2023/07/12 00:24:10;;;;;;;12.80;3.83;;;;;;;;;;5072388;28;20035;-73
2023/07/12 00:26:37;;;;;;;11.82;3.80;;;;;;;;;;5072765;28;20360;-74
2023/07/12 00:29:04;;;;;;;10.85;3.40;;;;;;;;;;5072461;28;20047;-74
2023/07/12 00:31:30;;;;;;;16.35;4.22;;;;;;;;;;5072327;28;20078;-73
2023/07/12 00:33:57;;;;;;;13.07;4.13;;;;;;;;;;5072121;28;20089;-73
2023/07/12 00:36:27;;;;;;;11.15;3.72;;;;;;;;;;5072758;28;20025;-74
2023/07/12 00:38:54;;;;;;;13.18;3.95;;;;;;;;;;5072294;28;20059;-72
2023/07/12 00:41:38;;;;;;;13.93;4.55;;;;;;;;;;5072130;28;20099;-74
2023/07/12 00:44:10;;;;;;;13.20;3.92;;;;;;;;;;5072061;28;20032;-75
2023/07/12 00:46:41;;;;;;;13.88;3.85;;;;;;;;;;5072182;28;20123;-75
2023/07/12 00:49:10;;;;;;;12.63;3.80;;;;;;;;;;5072088;28;20095;-74
2023/07/12 00:51:36;;;;;;;9.70;3.60;;;;;;;;;;5072000;28;20028;-73
2023/07/12 00:54:09;;;;;;;13.48;4.72;;;;;;;;;;5071732;28;20032;-73
2023/07/12 00:56:35;;;;;;;13.75;4.32;;;;;;;;;;5071987;28;20020;-73
2023/07/12 00:59:13;;;;;;;12.05;3.95;;;;;;;;;;5072129;28;20029;-74
2023/07/12 01:01:39;;;;;;;9.20;3.95;;;;;;;;;;5071838;28;20024;-74
2023/07/12 01:04:06;;;;;;;11.35;3.40;;;;;;;;;;5071648;28;20390;-73
2023/07/12 01:06:32;;;;;;;10.90;3.38;;;;;;;;;;5074250;28;20237;-74
2023/07/12 01:09:02;;;;;;;10.18;3.55;;;;;;;;;;5074074;28;20039;-74
2023/07/12 01:11:28;;;;;;;10.38;3.33;;;;;;;;;;5075437;28;20410;-75
2023/07/12 01:13:54;;;;;;;8.27;2.88;;;;;;;;;;5071989;28;20078;-73
2023/07/12 01:16:22;;;;;;;8.60;2.70;;;;;;;;;;5071697;28;20425;-74
2023/07/12 01:18:48;;;;;;;13.00;3.22;;;;;;;;;;5071588;28;20528;-73
2023/07/12 01:21:17;;;;;;;12.73;3.75;;;;;;;;;;5071702;28;20048;-74
2023/07/12 01:23:43;;;;;;;11.30;2.75;;;;;;;;;;5070136;28;20375;-74
2023/07/12 01:26:33;;;;;;;8.02;2.95;;;;;;;;;;5071610;28;20025;-74
2023/07/12 01:29:00;;;;;;;14.38;3.88;;;;;;;;;;5071645;28;20112;-74
2023/07/12 01:31:27;;;;;;;9.23;3.25;;;;;;;;;;5071575;28;20099;-74
2023/07/12 01:33:53;;;;;;;10.98;3.40;;;;;;;;;;5071458;28;20036;-74
2023/07/12 01:36:19;;;;;;;9.98;3.47;;;;;;;;;;5072412;28;20029;-73
2023/07/12 01:38:46;;;;;;;13.35;3.80;;;;;;;;;;5071479;28;20081;-73
2023/07/12 01:41:13;;;;;;;11.32;3.15;;;;;;;;;;5071324;28;20025;-73
2023/07/12 01:43:39;;;;;;;6.82;2.78;;;;;;;;;;5073840;28;20060;-74
2023/07/12 01:46:05;;;;;;;8.30;2.33;;;;;;;;;;5075067;28;20029;-75
2023/07/12 01:48:31;;;;;;;8.73;2.55;;;;;;;;;;5074323;28;20021;-74
2023/07/12 01:50:57;;;;;;;6.82;2.50;;;;;;;;;;5072864;28;20500;-74
2023/07/12 01:53:23;;;;;;;8.02;2.22;;;;;;;;;;5075598;28;20103;-74
2023/07/12 01:55:49;;;;;;;6.80;2.05;;;;;;;;;;5072719;28;20033;-73
2023/07/12 01:58:15;;;;;;;26.40;5.18;;;;;;;;;;5072248;28;20020;-75
2023/07/12 02:00:41;;;;;;;21.63;3.63;;;;;;;;;;5073254;28;20103;-74
2023/07/12 02:03:08;;;;;;;7.60;2.75;;;;;;;;;;5072996;28;20028;-73
2023/07/12 02:05:34;;;;;;;8.02;2.20;;;;;;;;;;5072131;28;20031;-74
2023/07/12 02:08:00;;;;;;;9.63;2.00;;;;;;;;;;5071640;28;20028;-72
2023/07/12 02:10:26;;;;;;;8.82;1.98;;;;;;;;;;5072645;28;20032;-72
2023/07/12 02:12:52;;;;;;;6.53;2.20;;;;;;;;;;5073524;28;20033;-74
2023/07/12 02:15:19;;;;;;;5.88;2.05;;;;;;;;;;5073542;28;20135;-74
2023/07/12 02:17:45;;;;;;;6.88;1.88;;;;;;;;;;5073686;28;20095;-73
2023/07/12 02:20:11;;;;;;;9.88;2.42;;;;;;;;;;5071806;28;20020;-72
2023/07/12 02:22:38;;;;;;;5.50;1.50;;;;;;;;;;5071090;28;20025;-73
2023/07/12 02:25:05;;;;;;;4.82;1.40;;;;;;;;;;5071648;28;20056;-72
2023/07/12 02:27:31;;;;;;;3.45;1.30;;;;;;;;;;5072216;28;20029;-73
2023/07/12 02:29:57;;;;;;;3.63;1.45;;;;;;;;;;5072076;28;20108;-73
2023/07/12 02:32:25;;;;;;;4.65;1.65;;;;;;;;;;5071066;28;20103;-72
2023/07/12 02:34:51;;;;;;;3.47;1.20;;;;;;;;;;5071843;28;20104;-74
2023/07/12 02:37:17;;;;;;;4.90;1.58;;;;;;;;;;5076130;28;20024;-73
2023/07/12 02:39:44;;;;;;;6.45;1.65;;;;;;;;;;5077146;28;20520;-73
2023/07/12 02:42:10;;;;;;;10.93;1.70;;;;;;;;;;5078094;28;20385;-73
2023/07/12 02:44:39;;;;;;;8.32;1.90;;;;;;;;;;5079166;28;20021;-77
2023/07/12 02:47:05;;;;;;;5.38;1.83;;;;;;;;;;5078533;28;20551;-76
2023/07/12 02:49:31;;;;;;;4.85;1.85;;;;;;;;;;5075139;28;20509;-75
2023/07/12 02:52:00;;;;;;;8.40;3.58;;;;;;;;;;5082879;28;20025;-75
2023/07/12 02:54:26;;;;;;;7.10;2.55;;;;;;;;;;5079352;28;20029;-76
2023/07/12 02:56:52;;;;;;;6.88;2.03;;;;;;;;;;5075131;28;20103;-76
2023/07/12 02:59:18;;;;;;;6.93;2.03;;;;;;;;;;5056319;28;20029;-78
2023/07/12 03:01:47;;;;;;;5.07;2.00;;;;;;;;;;5054019;28;20071;-75
2023/07/12 03:04:13;;;;;;;5.70;2.28;;;;;;;;;;5073214;28;20067;-76
2023/07/12 03:06:39;;;;;;;8.50;2.65;;;;;;;;;;5074573;28;20050;-74
2023/07/12 03:09:06;;;;;;;5.13;2.13;;;;;;;;;;5074388;28;20051;-76
2023/07/12 03:11:32;;;;;;;4.72;2.00;;;;;;;;;;5074515;28;20033;-75
2023/07/12 03:13:58;;;;;;;5.28;2.25;;;;;;;;;;5073711;28;20123;-75
2023/07/12 03:16:24;;;;;;;7.50;2.20;;;;;;;;;;5074502;28;20020;-75
2023/07/12 03:18:53;;;;;;;6.28;2.40;;;;;;;;;;5075299;28;20398;-75
2023/07/12 03:21:19;;;;;;;4.90;1.80;;;;;;;;;;5073676;28;20473;-76
2023/07/12 03:23:46;;;;;;;6.00;2.05;;;;;;;;;;5073319;28;20036;-75
2023/07/12 03:26:12;;;;;;;8.77;2.67;;;;;;;;;;5073514;28;20516;-75
2023/07/12 03:28:38;;;;;;;6.03;2.58;;;;;;;;;;5073458;28;20110;-75
2023/07/12 03:31:06;;;;;;;9.25;3.15;;;;;;;;;;5073284;28;20025;-75
2023/07/12 03:33:32;;;;;;;3.65;2.13;;;;;;;;;;5072527;28;20029;-75
2023/07/12 03:35:59;;;;;;;8.02;2.30;;;;;;;;;;5073456;28;20074;-75
2023/07/12 03:38:25;;;;;;;6.25;2.45;;;;;;;;;;5073681;28;20061;-75
2023/07/12 03:40:51;;;;;;;6.70;2.58;;;;;;;;;;5073336;28;20020;-77
2023/07/12 03:43:17;;;;;;;7.18;2.65;;;;;;;;;;5072103;28;20029;-75
2023/07/12 03:45:43;;;;;;;5.38;2.65;;;;;;;;;;5073039;28;20032;-76
2023/07/12 03:48:09;;;;;;;8.43;3.05;;;;;;;;;;5074054;28;20029;-76
2023/07/12 03:50:39;;;;;;;6.28;2.67;;;;;;;;;;5072664;28;20123;-74
2023/07/12 03:53:05;;;;;;;9.80;2.50;;;;;;;;;;5072197;28;20122;-75
2023/07/12 03:55:31;;;;;;;7.80;2.60;;;;;;;;;;5073323;28;20049;-79
2023/07/12 03:57:57;;;;;;;5.82;2.20;;;;;;;;;;5073785;28;20464;-75
2023/07/12 04:00:23;;;;;;;9.65;2.90;;;;;;;;;;5073732;28;20028;-77
2023/07/12 04:02:49;;;;;;;6.15;2.50;;;;;;;;;;5073576;28;20020;-75
2023/07/12 04:05:16;;;;;;;5.22;2.25;;;;;;;;;;5073672;28;20025;-77
2023/07/12 04:07:42;;;;;;;9.00;2.83;;;;;;;;;;5073914;28;20024;-75
2023/07/12 04:10:08;;;;;;;7.63;2.58;;;;;;;;;;5073578;28;20043;-76
2023/07/12 04:12:35;;;;;;;7.18;2.15;;;;;;;;;;5073014;28;20082;-76
2023/07/12 04:15:01;;;;;;;7.35;2.50;;;;;;;;;;5072301;28;20025;-76
2023/07/12 04:17:27;;;;;;;4.93;2.17;;;;;;;;;;5072672;28;20032;-78
2023/07/12 04:19:53;;;;;;;4.60;2.30;;;;;;;;;;5072692;28;20028;-75
2023/07/12 04:22:19;;;;;;;5.38;2.47;;;;;;;;;;5072456;28;20036;-75
2023/07/12 04:24:49;;;;;;;4.13;2.33;;;;;;;;;;5073163;28;20024;-77
2023/07/12 04:27:15;;;;;;;6.75;2.90;;;;;;;;;;5073818;28;20031;-77
2023/07/12 04:29:42;;;;;;;12.30;4.18;;;;;;;;;;5072490;28;20032;-77
2023/07/12 04:32:08;;;;;;;8.52;3.13;;;;;;;;;;5071940;28;20505;-77
2023/07/12 04:34:34;;;;;;;10.10;2.90;;;;;;;;;;5073138;28;20078;-75
2023/07/12 04:37:00;;;;;;;6.10;2.58;;;;;;;;;;5077788;28;20028;-75
2023/07/12 04:39:26;;;;;;;14.45;9.07;;;;;;;;;;5075389;28;20401;-76
2023/07/12 04:41:52;;;;;;;8.52;3.17;;;;;;;;;;5076488;28;20025;-75
2023/07/12 04:44:18;;;;;;;8.32;3.10;;;;;;;;;;5074862;28;20442;-77
2023/07/12 04:46:44;;;;;;;6.30;2.58;;;;;;;;;;5076212;28;20056;-75
2023/07/12 04:49:10;;;;;;;4.80;2.67;;;;;;;;;;5074903;28;20438;-76
2023/07/12 04:51:36;;;;;;;6.70;2.97;;;;;;;;;;5074101;28;20142;-76
2023/07/12 04:54:02;;;;;;;5.30;2.60;;;;;;;;;;5073284;28;20064;-76
2023/07/12 04:56:28;;;;;;;6.22;2.70;;;;;;;;;;5071505;28;20503;-76
2023/07/12 04:58:54;;;;;;;8.95;2.90;;;;;;;;;;5072849;28;20032;-76
2023/07/12 05:01:21;;;;;;;8.50;3.20;;;;;;;;;;5075172;28;20382;-75
2023/07/12 05:03:47;;;;;;;7.47;2.67;;;;;;;;;;5074675;28;20043;-76
2023/07/12 05:06:14;;;;;;;6.35;3.08;;;;;;;;;;5073815;28;20436;-76
2023/07/12 05:08:40;;;;;;;6.05;2.67;;;;;;;;;;5072796;28;20085;-77
2023/07/12 05:11:06;;;;;;;7.32;3.35;;;;;;;;;;5070882;28;20028;-76
2023/07/12 05:13:33;;;;;;;5.55;2.63;;;;;;;;;;5072725;28;20120;-77
2023/07/12 05:15:59;;;;;;;4.78;2.63;;;;;;;;;;5073513;28;20598;-75
2023/07/12 05:18:26;;;;;;;5.15;2.20;;;;;;;;;;5072805;28;20025;-80
2023/07/12 05:20:52;;;;;;;6.80;2.47;;;;;;;;;;5074639;28;20032;-76
2023/07/12 05:23:19;;;;;;;10.48;3.53;;;;;;;;;;5072969;28;20033;-76
2023/07/12 05:25:51;;;;;;;4.63;3.05;;;;;;;;;;5073365;28;20485;-73
2023/07/12 05:28:17;;;;;;;7.70;3.22;;;;;;;;;;5071390;28;20389;-76
2023/07/12 05:30:44;;;;;;;13.32;4.43;;;;;;;;;;5071288;28;20056;-76
2023/07/12 05:33:10;;;;;;;10.88;3.88;;;;;;;;;;5070657;28;20025;-75
2023/07/12 05:35:36;;;;;;;8.05;3.05;;;;;;;;;;5071085;28;20029;-74
2023/07/12 05:38:03;;;;;;;6.95;2.95;;;;;;;;;;5071318;28;20063;-75
2023/07/12 05:40:32;;;;;;;10.13;3.97;;;;;;;;;;5073888;28;20078;-74
2023/07/12 05:42:59;;;;;;;9.10;3.50;;;;;;;;;;5075027;28;20037;-76
2023/07/12 05:45:25;;;;;;;14.13;4.53;;;;;;;;;;5072834;28;20042;-73
2023/07/12 05:47:51;;;;;;;9.02;3.78;;;;;;;;;;5071370;28;20025;-75
2023/07/12 05:50:18;;;;;;;7.95;3.70;;;;;;;;;;5074538;28;20063;-73
2023/07/12 05:52:44;;;;;;;9.48;4.00;;;;;;;;;;5073200;28;20442;-76
2023/07/12 05:55:11;;;;;;;15.90;4.72;;;;;;;;;;5075266;28;20098;-75
2023/07/12 05:57:38;;;;;;;10.90;4.55;;;;;;;;;;5071902;28;20027;-75
2023/07/12 06:00:04;;;;;;;10.13;4.22;;;;;;;;;;5073289;28;20021;-73
2023/07/12 06:02:31;;;;;;;10.90;4.40;;;;;;;;;;5072656;28;20338;-74
2023/07/12 06:04:57;;;;;;;8.35;4.55;;;;;;;;;;5072010;28;20031;-74
2023/07/12 06:07:23;;;;;;;7.93;4.20;;;;;;;;;;5072585;28;20028;-78
2023/07/12 06:09:49;;;;;;;8.77;4.07;;;;;;;;;;5073671;28;20028;-74
2023/07/12 06:12:15;;;;;;;8.13;3.78;;;;;;;;;;5077410;28;20040;-74
2023/07/12 06:14:41;;;;;;;10.88;4.32;;;;;;;;;;5077035;28;20052;-75
2023/07/12 06:17:07;;;;;;;13.05;4.88;;;;;;;;;;5084580;28;20390;-74
2023/07/12 06:19:34;;;;;;;18.05;5.75;;;;;;;;;;5078392;28;20025;-75
2023/07/12 06:22:00;;;;;;;11.48;4.10;;;;;;;;;;5076904;28;20024;-72
2023/07/12 06:24:26;;;;;;;11.88;4.68;;;;;;;;;;5075620;28;20040;-73
2023/07/12 06:26:52;;;;;;;11.73;4.45;;;;;;;;;;5055003;28;20032;-72
2023/07/12 06:29:18;;;;;;;10.30;4.35;;;;;;;;;;5054936;28;20040;-74
2023/07/12 06:31:44;;;;;;;10.90;4.30;;;;;;;;;;5054104;28;20414;-74
2023/07/12 06:34:10;;;;;;;12.27;4.30;;;;;;;;;;5054403;28;20509;-75
2023/07/12 06:36:36;;;;;;;6.82;3.50;;;;;;;;;;5055554;28;20497;-72
2023/07/12 06:39:03;;;;;;;8.23;3.63;;;;;;;;;;5054708;28;20041;-73
2023/07/12 06:41:30;;;;;;;11.07;4.15;;;;;;;;;;5054213;28;20063;-73
2023/07/12 06:43:56;;;;;;;10.27;3.53;;;;;;;;;;5054148;28;20433;-73
2023/07/12 06:46:22;;;;;;;6.10;4.40;;;;;;;;;;5053983;28;20108;-72
2023/07/12 06:48:48;;;;;;;7.93;4.25;;;;;;;;;;5055686;28;20039;-74
2023/07/12 06:51:14;;;;;;;11.38;4.80;;;;;;;;;;5056086;28;20017;-74
2023/07/12 06:53:40;;;;;;;10.93;4.40;;;;;;;;;;5051659;28;20418;-73
2023/07/12 06:56:06;;;;;;;10.90;3.83;;;;;;;;;;5052723;28;20021;-74
2023/07/12 06:58:32;;;;;;;6.03;3.50;;;;;;;;;;5052926;28;20080;-73
2023/07/12 07:00:58;;;;;;;6.18;3.60;;;;;;;;;;5053106;28;20071;-76
2023/07/12 07:03:25;;;;;;;7.65;3.80;;;;;;;;;;5052484;28;20107;-76
2023/07/12 07:05:51;;;;;;;6.78;4.13;;;;;;;;;;5052398;28;20032;-75
2023/07/12 07:08:18;;;;;;;9.57;3.60;;;;;;;;;;5054969;28;20032;-76
2023/07/12 07:10:48;;;;;;;7.13;3.10;;;;;;;;;;5052936;28;20028;-76
2023/07/12 07:13:14;;;;;;;8.02;5.25;;;;;;;;;;5052002;28;20510;-75
2023/07/12 07:15:40;;;;;;;10.23;3.50;;;;;;;;;;5054671;28;20025;-75
2023/07/12 07:18:07;;;;;;;9.63;3.22;;;;;;;;;;5052279;28;20474;-75
2023/07/12 07:20:33;;;;;;;8.55;3.00;;;;;;;;;;5053310;28;20363;-73
2023/07/12 07:22:59;;;;;;;5.15;2.53;;;;;;;;;;5051851;28;20336;-74
2023/07/12 07:25:27;;;;;;;7.32;2.90;;;;;;;;;;5060155;28;20048;-73
2023/07/12 07:27:53;;;;;;;6.10;2.53;;;;;;;;;;5074553;28;20086;-75
2023/07/12 07:30:19;;;;;;;7.80;2.65;;;;;;;;;;5074678;28;20021;-73
2023/07/12 07:32:45;;;;;;;5.65;2.55;;;;;;;;;;5072703;28;20111;-75
2023/07/12 07:35:12;;;;;;;10.70;2.95;;;;;;;;;;5075502;28;20017;-73
2023/07/12 07:37:38;;;;;;;6.20;2.00;;;;;;;;;;5073376;28;20082;-73
2023/07/12 07:40:04;;;;;;;7.95;2.60;;;;;;;;;;5072270;28;20482;-76
2023/07/12 07:42:30;;;;;;;9.65;3.03;;;;;;;;;;5071465;28;20032;-73
2023/07/12 07:44:56;;;;;;;11.82;4.30;;;;;;;;;;5072602;28;20537;-73
2023/07/12 07:47:22;;;;;;;9.57;3.78;;;;;;;;;;5073885;28;20071;-73
2023/07/12 07:49:48;;;;;;;9.30;2.97;;;;;;;;;;5074205;28;20435;-75
2023/07/12 07:52:14;;;;;;;12.60;3.42;;;;;;;;;;5071615;28;20064;-74
2023/07/12 07:54:40;;;;;;;9.82;2.63;;;;;;;;;;5073757;28;20393;-74
2023/07/12 07:57:07;;;;;;;13.52;3.85;;;;;;;;;;5072120;28;20074;-75
2023/07/12 07:59:33;;;;;;;14.35;3.63;;;;;;;;;;5072717;28;20026;-74
2023/07/12 08:01:59;;;;;;;12.27;3.30;;;;;;;;;;5071861;28;20098;-75
2023/07/12 08:04:25;;;;;;;11.68;3.40;;;;;;;;;;5072717;28;20466;-74
2023/07/12 08:06:51;;;;;;;12.43;3.65;;;;;;;;;;5072671;28;20071;-72
2023/07/12 08:09:17;;;;;;;10.05;3.45;;;;;;;;;;5072308;28;20035;-72
2023/07/12 08:11:43;;;;;;;14.73;3.40;;;;;;;;;;5071912;28;20115;-73
2023/07/12 08:14:09;;;;;;;9.88;3.38;;;;;;;;;;5070784;28;20119;-73
2023/07/12 08:16:37;;;;;;;8.23;3.00;;;;;;;;;;5072479;28;20075;-75
2023/07/12 08:19:04;;;;;;;10.20;3.42;;;;;;;;;;5072542;28;20020;-73
2023/07/12 08:21:30;;;;;;;9.15;3.55;;;;;;;;;;5072943;28;20510;-73
2023/07/12 08:23:56;;;;;;;16.58;4.50;;;;;;;;;;5071600;28;20142;-73
2023/07/12 08:26:22;;;;;;;14.35;3.30;;;;;;;;;;5072381;28;20028;-74
2023/07/12 08:28:49;;;;;;;7.20;2.97;;;;;;;;;;5072477;28;20460;-74
2023/07/12 08:31:15;;;;;;;11.48;3.17;;;;;;;;;;5072247;28;20035;-74
2023/07/12 08:33:44;;;;;;;13.88;3.25;;;;;;;;;;5070332;28;20059;-73
2023/07/12 08:36:10;;;;;;;12.32;3.20;;;;;;;;;;5071871;28;20012;-73
2023/07/12 08:38:36;;;;;;;6.50;2.83;;;;;;;;;;5071650;28;20025;-74
2023/07/12 08:41:05;;;;;;;6.85;2.67;;;;;;;;;;5071883;28;20043;-74
2023/07/12 08:43:33;;;;;;;10.68;2.78;;;;;;;;;;5072580;28;20039;-72
2023/07/12 08:46:03;;;;;;;19.30;3.83;;;;;;;;;;5072838;28;20048;-72
2023/07/12 08:48:29;;;;;;;9.55;3.05;;;;;;;;;;5072052;28;20370;-77
2023/07/12 08:50:55;;;;;;;11.95;3.03;;;;;;;;;;5072284;28;20078;-74
2023/07/12 08:53:25;;;;;;;8.30;2.60;;;;;;;;;;5073567;28;20033;-75
2023/07/12 08:55:52;;;;;;;9.20;2.70;;;;;;;;;;5074019;28;20032;-75
2023/07/12 08:58:25;;;;;;;11.30;3.05;;;;;;;;;;5075209;28;20028;-74
2023/07/12 09:01:11;;;;;;;11.73;3.03;;;;;;;;;;5073720;28;20039;-75
2023/07/12 09:03:37;;;;;;;9.90;3.33;;;;;;;;;;5071893;28;20064;-74
2023/07/12 09:06:08;;;;;;;12.45;3.22;;;;;;;;;;5072724;28;20032;-74
2023/07/12 09:08:36;;;;;;;10.07;3.17;;;;;;;;;;5072880;28;20028;-74
2023/07/12 09:11:02;;;;;;;13.95;4.10;;;;;;;;;;5075043;28;20057;-74
2023/07/12 09:13:36;;;;;;;11.27;2.90;;;;;;;;;;5072556;28;20064;-76
2023/07/12 09:16:03;;;;;;;14.32;3.60;;;;;;;;;;5074198;28;20498;-73
2023/07/12 09:18:32;;;;;;;14.02;3.22;;;;;;;;;;5072830;28;20031;-74
2023/07/12 09:20:59;;;;;;;9.60;2.90;;;;;;;;;;5074905;28;20032;-73
2023/07/12 09:23:26;;;;;;;13.35;3.05;;;;;;;;;;5071237;28;20133;-75
2023/07/12 09:25:56;;;;;;;12.40;3.25;;;;;;;;;;5073886;28;20103;-73
2023/07/12 09:28:22;;;;;;;9.40;3.03;;;;;;;;;;5071628;28;20082;-74
2023/07/12 09:30:50;;;;;;;14.15;3.30;;;;;;;;;;5072484;28;20433;-75
2023/07/12 09:33:18;;;;;;;14.85;3.22;;;;;;;;;;5073554;28;20027;-75
2023/07/12 09:35:45;;;;;;;11.90;2.60;;;;;;;;;;5075680;28;20024;-75
2023/07/12 09:38:16;;;;;;;9.95;2.78;;;;;;;;;;5077188;28;20041;-75
2023/07/12 09:40:43;;;;;;;10.23;2.85;;;;;;;;;;5075464;28;20070;-74
2023/07/12 09:43:23;;;;;;;10.98;3.13;;;;;;;;;;5071282;28;20048;-73
2023/07/12 09:45:59;;;;;;;11.10;3.17;;;;;;;;;;5073732;28;20028;-74
2023/07/12 09:48:26;;;;;;;8.82;2.95;;;;;;;;;;5076759;28;20093;-74
2023/07/12 09:51:15;;;;;;;14.25;3.20;;;;;;;;;;5076508;28;20069;-73
2023/07/12 09:53:41;;;;;;;8.35;2.60;;;;;;;;;;5071936;28;20036;-73
2023/07/12 09:56:27;;;;;;;11.90;2.97;;;;;;;;;;5075425;28;20459;-74
2023/07/12 09:58:57;;;;;;;14.43;3.80;;;;;;;;;;5074811;28;20448;-74
2023/07/12 10:01:23;;;;;;;10.85;3.50;;;;;;;;;;5075956;28;20111;-75
2023/07/12 10:03:54;;;;;;;19.38;4.07;;;;;;;;;;5075213;28;20056;-74
2023/07/12 10:06:29;;;;;;;13.77;3.72;;;;;;;;;;5075237;28;20032;-76
2023/07/12 10:09:05;;;;;;;14.52;4.20;;;;;;;;;;5074833;28;20036;-73
2023/07/12 10:11:36;;;;;;;13.07;3.10;;;;;;;;;;5074464;28;20478;-74
2023/07/12 10:14:06;;;;;;;12.85;3.53;;;;;;;;;;5074699;28;20025;-74
2023/07/12 10:16:35;;;;;;;16.08;3.50;;;;;;;;;;5075144;28;20039;-75
2023/07/12 10:19:22;;;;;;;16.38;3.40;;;;;;;;;;5075011;28;20358;-75
2023/07/12 10:21:53;;;;;;;13.80;3.17;;;;;;;;;;5074343;28;20044;-76
2023/07/12 10:24:21;;;;;;;16.60;3.47;;;;;;;;;;5074444;28;20037;-75
2023/07/12 10:26:48;;;;;;;9.75;2.90;;;;;;;;;;5074747;28;20025;-74
2023/07/12 10:29:19;;;;;;;8.38;3.83;;;;;;;;;;5075724;28;20039;-75
2023/07/12 10:31:48;;;;;;;20.63;2.97;;;;;;;;;;5074837;28;20078;-74
2023/07/12 10:34:18;;;;;;;13.25;3.13;;;;;;;;;;5075933;28;20074;-74
2023/07/12 10:36:45;;;;;;;11.57;3.60;;;;;;;;;;5076201;28;20031;-74
2023/07/12 10:39:12;;;;;;;15.07;3.63;;;;;;;;;;5075385;28;20035;-74
2023/07/12 10:41:47;;;;;;;10.75;2.95;;;;;;;;;;5073371;28;20443;-75
2023/07/12 10:44:13;;;;;;;;;;;;;;;;;;5074950;28;20034;-75
2023/07/12 10:46:41;;;;;;;12.38;3.50;;;;;;;;;;5074301;28;19994;-75
2023/07/12 10:49:15;;;;;;;12.82;3.30;;;;;;;;;;5074814;28;20389;-74
2023/07/12 10:51:42;;;;;;;12.17;3.13;;;;;;;;;;5075985;28;20063;-75
2023/07/12 10:54:27;;;;;;;18.80;3.15;;;;;;;;;;5080662;28;20060;-75
2023/07/12 10:56:54;;;;;;;14.07;3.63;;;;;;;;;;5075303;28;20067;-74
2023/07/12 10:59:32;;;;;;;12.25;2.97;;;;;;;;;;5073149;28;20458;-74
2023/07/12 11:02:04;;;;;;;12.25;2.83;;;;;;;;;;5074900;28;20024;-74
2023/07/12 11:04:30;;;;;;;9.95;2.78;;;;;;;;;;5075376;28;20390;-74
2023/07/12 11:06:57;;;;;;;12.30;3.38;;;;;;;;;;5073745;28;20025;-75
2023/07/12 11:09:24;;;;;;;13.70;4.05;;;;;;;;;;5073385;28;20074;-74
2023/07/12 11:11:57;;;;;;;17.05;5.25;;;;;;;;;;5073952;28;20028;-73
2023/07/12 11:14:38;;;;;;;16.35;3.83;;;;;;;;;;5075249;28;20032;-73
2023/07/12 11:17:08;;;;;;;16.20;3.72;;;;;;;;;;5073179;28;20478;-73
2023/07/12 11:19:40;;;;;;;13.90;3.67;;;;;;;;;;5074859;28;20075;-75
2023/07/12 11:22:12;;;;;;;11.73;3.42;;;;;;;;;;5073729;28;20029;-74
2023/07/12 11:24:39;;;;;;;11.95;4.22;;;;;;;;;;5074124;28;20534;-73
2023/07/12 11:27:09;;;;;;;14.73;3.72;;;;;;;;;;5074623;28;20103;-74
2023/07/12 11:29:36;;;;;;;17.30;3.50;;;;;;;;;;5074787;28;20024;-75
2023/07/12 11:32:24;;;;;;;11.80;2.95;;;;;;;;;;5076387;28;20379;-74
2023/07/12 11:34:53;;;;;;;12.05;3.53;;;;;;;;;;5078199;28;20033;-76
2023/07/12 11:37:25;;;;;;;23.08;3.63;;;;;;;;;;5076901;28;20016;-75
2023/07/12 11:39:52;;;;;;;14.02;3.03;;;;;;;;;;5073446;28;20025;-74
2023/07/12 11:42:25;;;;;;;14.45;3.25;;;;;;;;;;5073397;28;20025;-76
2023/07/12 11:45:00;;;;;;;13.70;3.03;;;;;;;;;;5073627;28;20024;-78
2023/07/12 11:47:27;;;;;;;17.00;3.78;;;;;;;;;;5079014;28;20039;-78
2023/07/12 11:49:57;;;;;;;11.00;3.72;;;;;;;;;;5080081;28;20468;-78
2023/07/12 11:52:23;;;;;;;15.63;3.55;;;;;;;;;;5077517;28;20013;-76
2023/07/12 11:54:50;;;;;;;11.80;2.88;;;;;;;;;;5076370;28;20109;-77
2023/07/12 11:57:16;;;;;;;9.85;3.10;;;;;;;;;;5079391;28;20119;-75
2023/07/12 11:59:44;;;;;;;16.60;3.30;;;;;;;;;;5076830;28;20052;-74
2023/07/12 12:02:21;;;;;;;9.18;3.17;;;;;;;;;;5074880;28;20028;-75
2023/07/12 12:04:49;;;;;;;12.77;3.40;;;;;;;;;;5081293;28;20025;-78
2023/07/12 12:07:27;;;;;;;11.07;2.42;;;;;;;;;;5077731;28;20082;-81
2023/07/12 12:09:53;;;;;;;14.90;2.92;;;;;;;;;;5074879;28;20050;-78
2023/07/12 12:12:21;;;;;;;12.63;3.42;;;;;;;;;;5071664;28;20024;-78
2023/07/12 12:14:48;;;;;;;8.77;2.85;;;;;;;;;;5073231;28;20020;-76
2023/07/12 12:17:18;;;;;;;15.18;2.92;;;;;;;;;;5073602;28;20016;-78
2023/07/12 12:19:48;;;;;;;12.07;2.63;;;;;;;;;;5071817;28;20031;-75
2023/07/12 12:22:16;;;;;;;10.73;2.80;;;;;;;;;;5072217;28;20024;-74
2023/07/12 12:24:46;;;;;;;10.05;2.78;;;;;;;;;;5072368;28;20039;-75
2023/07/12 12:27:22;;;;;;;14.43;3.63;;;;;;;;;;5074302;28;20029;-74
2023/07/12 12:29:50;;;;;;;9.30;2.10;;;;;;;;;;5073254;28;20382;-76
2023/07/12 12:32:16;;;;;;;7.55;2.35;;;;;;;;;;5071858;28;20028;-76
2023/07/12 12:34:51;;;;;;;9.20;2.20;;;;;;;;;;5072307;28;20016;-75
2023/07/12 12:37:19;;;;;;;8.80;2.45;;;;;;;;;;5071295;28;20028;-74
2023/07/12 12:39:58;;;;;;;12.57;2.83;;;;;;;;;;5073551;28;20470;-76
2023/07/12 12:42:25;;;;;;;12.02;2.40;;;;;;;;;;5073147;28;20508;-75
2023/07/12 12:44:51;;;;;;;10.73;2.97;;;;;;;;;;5072602;28;20459;-76
2023/07/12 12:47:17;;;;;;;10.32;2.20;;;;;;;;;;5074690;28;20361;-77
2023/07/12 12:49:43;;;;;;;5.00;1.50;;;;;;;;;;5072232;28;20101;-75
2023/07/12 12:52:21;;;;;;;4.72;1.77;;;;;;;;;;5072741;28;20031;-79
2023/07/12 12:54:47;;;;;;;9.52;2.90;;;;;;;;;;5073698;28;20032;-75
2023/07/12 12:57:13;;;;;;;9.77;2.17;;;;;;;;;;5076145;28;20424;-74
2023/07/12 12:59:39;;;;;;;7.93;2.15;;;;;;;;;;5075867;28;20028;-74
2023/07/12 13:02:16;;;;;;;13.93;2.75;;;;;;;;;;5073491;28;20048;-75
2023/07/12 13:04:42;;;;;;;8.32;1.85;;;;;;;;;;5073846;28;20077;-75
2023/07/12 13:07:23;;;;;;;6.70;2.10;;;;;;;;;;5074078;28;20036;-76
2023/07/12 13:09:49;;;;;;;9.45;2.13;;;;;;;;;;5078901;28;20106;-77
2023/07/12 13:12:16;;;;;;;10.65;2.25;;;;;;;;;;5071578;28;20529;-77
2023/07/12 13:14:42;;;;;;;9.07;2.00;;;;;;;;;;5070600;28;20025;-76
2023/07/12 13:17:14;;;;;;;7.18;1.92;;;;;;;;;;5077633;28;20036;-75
2023/07/12 13:19:40;;;;;;;5.55;2.28;;;;;;;;;;5054691;28;20024;-76
2023/07/12 13:22:10;;;;;;;8.90;2.63;;;;;;;;;;5071573;28;20032;-75
2023/07/12 13:24:36;;;;;;;10.40;4.30;;;;;;;;;;5077632;28;20032;-76
2023/07/12 13:27:03;;;;;;;11.23;2.70;;;;;;;;;;5077006;28;20086;-75
2023/07/12 13:29:29;;;;;;;14.20;4.43;;;;;;;;;;5074075;28;20195;-76
2023/07/12 13:31:55;;;;;;;13.25;3.38;;;;;;;;;;5075220;28;20112;-75
2023/07/12 13:34:21;;;;;;;10.02;3.55;;;;;;;;;;5086947;28;20072;-76
2023/07/12 13:36:47;;;;;;;14.43;3.10;;;;;;;;;;5075970;28;20025;-76
2023/07/12 13:39:18;;;;;;;9.30;3.58;;;;;;;;;;5074437;28;20099;-76
2023/07/12 13:41:48;;;;;;;9.68;3.15;;;;;;;;;;5070549;28;20029;-75
2023/07/12 13:44:14;;;;;;;13.15;4.30;;;;;;;;;;5077180;28;20070;-74
2023/07/12 13:46:41;;;;;;;8.85;3.22;;;;;;;;;;5073643;28;20162;-75
2023/07/12 13:49:10;;;;;;;11.02;3.50;;;;;;;;;;5070569;28;20036;-74
2023/07/12 13:51:36;;;;;;;12.88;3.80;;;;;;;;;;5076309;28;20028;-74
2023/07/12 13:54:02;;;;;;;9.40;3.10;;;;;;;;;;5070550;28;20064;-73
2023/07/12 13:56:28;;;;;;;11.40;3.72;;;;;;;;;;5070795;28;20028;-74
2023/07/12 13:58:54;;;;;;;9.50;2.80;;;;;;;;;;5076533;28;20029;-74
2023/07/12 14:01:23;;;;;;;11.32;3.55;;;;;;;;;;5077098;28;20025;-75
2023/07/12 14:03:50;;;;;;;11.98;3.50;;;;;;;;;;5071461;28;20035;-75
2023/07/12 14:06:16;;;;;;;10.73;3.20;;;;;;;;;;5071750;28;20059;-74
2023/07/12 14:08:42;;;;;;;9.93;2.83;;;;;;;;;;5071341;28;20060;-75
2023/07/12 14:11:28;;;;;;;9.98;3.25;;;;;;;;;;5071705;28;20024;-76
2023/07/12 14:13:55;;;;;;;11.25;3.70;;;;;;;;;;5071950;28;20111;-73
2023/07/12 14:16:21;;;;;;;14.98;3.55;;;;;;;;;;5071524;28;20029;-75
2023/07/12 14:18:47;;;;;;;13.07;3.03;;;;;;;;;;5071376;28;20024;-74
2023/07/12 14:21:14;;;;;;;10.57;2.85;;;;;;;;;;5070410;28;20017;-76
2023/07/12 14:23:40;;;;;;;7.90;2.28;;;;;;;;;;5072884;28;20474;-75
2023/07/12 14:26:07;;;;;;;10.35;2.90;;;;;;;;;;5071502;28;20033;-76
2023/07/12 14:28:33;;;;;;;7.68;2.70;;;;;;;;;;5071983;28;20179;-74
2023/07/12 14:30:59;;;;;;;7.13;2.75;;;;;;;;;;5071745;28;20060;-75
2023/07/12 14:33:35;;;;;;;11.95;3.38;;;;;;;;;;5075550;28;20155;-77
2023/07/12 14:36:01;;;;;;;8.80;2.50;;;;;;;;;;5077203;28;20031;-76
2023/07/12 14:38:28;;;;;;;10.43;3.25;;;;;;;;;;5077961;28;20024;-76
2023/07/12 14:40:54;;;;;;;12.80;3.65;;;;;;;;;;5075501;28;20143;-74